Time;durP1;ratioP1;P1;durP2;ratioP2;P2;SDS_P1;SDS_P2;PMS_P1;PMS_P2;Temp;Humidity;BMP_temperature;BMP_pressure;BME280_temperature;BME280_humidity;BME280_pressure;Samples;Min_cycle;Max_cycle;Signal;HPM_P1;HPM_P2
2022/05/08 00:01:12;;;;;;;;;;;19.10;62.70;;;;;;5063663;28;1059;-69
2022/05/08 00:03:38;;;;;;;;;;;19.00;62.60;;;;;;5062143;28;2078;-69
2022/05/08 00:06:10;;;;;;;;;;;19.10;62.70;;;;;;5052918;28;2452;-69
2022/05/08 00:08:35;;;;;;;;;;;19.10;62.70;;;;;;5066374;28;1112;-69
2022/05/08 00:11:01;;;;;;;;;;;19.10;62.70;;;;;;5053914;28;1961;-70
2022/05/08 00:13:26;;;;;;;;;;;19.00;62.60;;;;;;5059176;28;906;-69
2022/05/08 00:15:52;;;;;;;;;;;19.00;62.60;;;;;;5072031;28;1395;-68
2022/05/08 00:18:17;;;;;;;;;;;19.10;62.70;;;;;;5067346;28;1451;-69
2022/05/08 00:20:43;;;;;;;;;;;19.10;62.70;;;;;;5067810;28;1111;-69
2022/05/08 00:23:08;;;;;;;;;;;19.00;62.60;;;;;;5054912;28;1998;-69
2022/05/08 00:25:33;;;;;;;;;;;19.10;62.70;;;;;;5066204;28;2180;-68
2022/05/08 00:27:59;;;;;;;;;;;19.10;62.70;;;;;;5071972;28;1178;-68
2022/05/08 00:30:25;;;;;;;;;;;19.00;62.60;;;;;;5069203;28;1973;-69
2022/05/08 00:32:50;;;;;;;;;;;19.10;62.70;;;;;;5034813;28;1262;-68
2022/05/08 00:35:16;;;;;;;;;;;19.10;62.70;;;;;;5062591;28;1376;-69
2022/05/08 00:37:41;;;;;;;;;;;19.00;62.70;;;;;;5069646;28;1361;-69
2022/05/08 00:40:07;;;;;;;;;;;19.00;62.70;;;;;;5067395;28;1266;-68
2022/05/08 00:42:32;;;;;;;;;;;19.10;62.70;;;;;;5066043;28;1313;-69
2022/05/08 00:44:58;;;;;;;;;;;19.00;62.70;;;;;;5053742;28;1370;-69
2022/05/08 00:47:23;;;;;;;;;;;19.00;62.70;;;;;;5054970;28;1396;-68
2022/05/08 00:49:48;;;;;;;;;;;19.10;62.70;;;;;;5037010;28;1898;-70
2022/05/08 00:52:15;;;;;;;;;;;19.10;62.70;;;;;;5036960;28;1212;-69
2022/05/08 00:54:40;;;;;;;;;;;19.00;62.70;;;;;;5055021;28;1329;-69
2022/05/08 00:57:07;;;;;;;;;;;19.00;62.70;;;;;;5039118;28;1257;-69
2022/05/08 00:59:33;;;;;;;;;;;19.10;62.80;;;;;;5056873;28;1273;-69
2022/05/08 01:01:58;;;;;;;;;;;19.00;62.70;;;;;;5056976;28;1265;-68
2022/05/08 01:04:24;;;;;;;;;;;19.10;62.80;;;;;;5058091;28;2164;-68
2022/05/08 01:06:49;;;;;;;;;;;19.00;62.70;;;;;;5069548;28;1187;-69
2022/05/08 01:09:14;;;;;;;;;;;19.10;62.80;;;;;;5062405;28;1320;-68
2022/05/08 01:11:40;;;;;;;;;;;19.00;62.70;;;;;;5036750;28;1898;-68
2022/05/08 01:14:05;;;;;;;;;;;19.00;62.70;;;;;;5036652;28;1325;-68
2022/05/08 01:16:31;;;;;;;;;;;19.00;62.70;;;;;;5054628;28;1427;-68
2022/05/08 01:18:56;;;;;;;;;;;19.10;62.80;;;;;;5056160;28;1140;-68
2022/05/08 01:21:22;;;;;;;;;;;19.10;62.80;;;;;;5054629;28;1239;-68
2022/05/08 01:23:48;;;;;;;;;;;19.10;62.80;;;;;;5074361;28;1276;-68
2022/05/08 01:26:19;;;;;;;;;;;19.00;62.70;;;;;;5056457;28;1317;-68
2022/05/08 01:28:44;;;;;;;;;;;19.00;62.70;;;;;;5055981;28;1245;-69
2022/05/08 01:31:10;;;;;;;;;;;19.10;62.90;;;;;;5074108;28;1919;-68
2022/05/08 01:33:35;;;;;;;;;;;19.10;62.80;;;;;;5074212;28;1267;-68
2022/05/08 01:36:01;;;;;;;;;;;19.00;62.80;;;;;;5055511;28;1324;-68
2022/05/08 01:38:26;;;;;;;;;;;19.10;62.90;;;;;;5062704;28;1078;-68
2022/05/08 01:40:52;;;;;;;;;;;19.10;62.80;;;;;;5053767;28;1247;-68
2022/05/08 01:43:17;;;;;;;;;;;19.10;62.80;;;;;;5054094;28;1282;-69
2022/05/08 01:45:43;;;;;;;;;;;19.00;62.80;;;;;;5036046;28;1290;-68
2022/05/08 01:48:23;;;;;;;;;;;19.10;62.80;;;;;;5054125;28;1376;-68
2022/05/08 01:50:52;;;;;;;;;;;19.10;62.90;;;;;;5038214;28;1906;-68
2022/05/08 01:53:21;;;;;;;;;;;19.00;62.80;;;;;;5036476;28;1292;-68
2022/05/08 01:55:49;;;;;;;;;;;19.00;62.90;;;;;;5061021;28;2371;-68
2022/05/08 01:58:15;;;;;;;;;;;19.10;62.90;;;;;;5071850;28;1364;-68
2022/05/08 02:00:41;;;;;;;;;;;19.10;62.90;;;;;;5063868;28;2110;-67
2022/05/08 02:03:06;;;;;;;;;;;19.00;62.80;;;;;;5067299;28;1379;-68
2022/05/08 02:05:32;;;;;;;;;;;19.10;62.90;;;;;;5045341;28;1385;-68
2022/05/08 02:07:57;;;;;;;;;;;19.10;62.90;;;;;;5044764;28;1187;-68
2022/05/08 02:10:23;;;;;;;;;;;19.00;62.90;;;;;;5062449;28;1964;-67
2022/05/08 02:12:48;;;;;;;;;;;19.10;62.90;;;;;;5062705;28;1286;-66
2022/05/08 02:15:16;;;;;;;;;;;19.10;62.90;;;;;;5062468;28;1267;-67
2022/05/08 02:17:42;;;;;;;;;;;19.00;62.90;;;;;;5064332;28;1184;-68
2022/05/08 02:20:07;;;;;;;;;;;19.00;62.80;;;;;;5045021;28;1224;-68
2022/05/08 02:22:33;;;;;;;;;;;19.10;62.90;;;;;;5058399;28;1986;-69
2022/05/08 02:24:58;;;;;;;;;;;19.10;63.00;;;;;;5046871;28;1482;-67
2022/05/08 02:27:24;;;;;;;;;;;19.00;62.90;;;;;;5070411;28;1316;-68
2022/05/08 02:29:50;;;;;;;;;;;19.00;62.90;;;;;;5062624;28;1914;-68
2022/05/08 02:32:15;;;;;;;;;;;19.10;63.00;;;;;;5069473;28;1360;-68
2022/05/08 02:34:41;;;;;;;;;;;19.10;63.00;;;;;;5035639;28;1292;-68
2022/05/08 02:37:06;;;;;;;;;;;19.00;62.90;;;;;;5053464;28;1352;-68
2022/05/08 02:39:32;;;;;;;;;;;19.10;63.00;;;;;;5042857;28;1418;-68
2022/05/08 02:41:57;;;;;;;;;;;19.00;62.90;;;;;;5066957;28;1201;-67
2022/05/08 02:44:22;;;;;;;;;;;19.00;62.90;;;;;;5053308;28;1302;-68
2022/05/08 02:46:48;;;;;;;;;;;19.10;63.00;;;;;;5052980;28;1663;-68
2022/05/08 02:49:13;;;;;;;;;;;19.00;63.70;;;;;;5034583;28;1338;-68
2022/05/08 02:51:39;;;;;;;;;;;19.10;63.00;;;;;;5035482;28;1957;-68
2022/05/08 02:54:04;;;;;;;;;;;19.00;63.00;;;;;;5053088;28;1272;-68
2022/05/08 02:59:15;;;;;;;;;;;19.00;62.90;;;;;;5072868;28;1256;-68
2022/05/08 03:01:40;;;;;;;;;;;19.00;63.00;;;;;;5073218;28;1322;-68
2022/05/08 03:04:06;;;;;;;;;;;19.00;63.00;;;;;;5060080;28;1658;-68
2022/05/08 03:06:31;;;;;;;;;;;19.10;63.00;;;;;;5035244;28;1332;-69
2022/05/08 03:08:57;;;;;;;;;;;19.00;63.00;;;;;;5052942;28;1237;-68
2022/05/08 03:11:26;;;;;;;;;;;19.00;63.00;;;;;;5034840;28;1914;-68
2022/05/08 03:13:51;;;;;;;;;;;19.00;63.00;;;;;;5052755;28;1268;-67
2022/05/08 03:16:17;;;;;;;;;;;19.00;63.00;;;;;;5052753;28;1418;-68
2022/05/08 03:18:44;;;;;;;;;;;19.00;63.00;;;;;;5054248;28;1159;-67
2022/05/08 03:21:12;;;;;;;;;;;19.00;63.00;;;;;;5069456;28;1189;-67
2022/05/08 03:23:37;;;;;;;;;;;19.00;63.00;;;;;;5072824;28;1311;-67
2022/05/08 03:26:04;;;;;;;;;;;19.00;63.00;;;;;;5090625;22;2055;-72
2022/05/08 03:28:31;;;;;;;;;;;19.00;63.10;;;;;;5080645;28;1544;-71
2022/05/08 03:30:56;;;;;;;;;;;19.00;63.00;;;;;;5079068;28;1985;-71
2022/05/08 03:33:22;;;;;;;;;;;19.00;63.10;;;;;;5071482;28;1411;-71
2022/05/08 03:35:48;;;;;;;;;;;19.00;63.10;;;;;;5071441;28;1342;-72
2022/05/08 03:38:13;;;;;;;;;;;19.00;63.00;;;;;;5071544;28;1329;-71
2022/05/08 03:40:39;;;;;;;;;;;19.00;63.10;;;;;;5054368;28;1421;-73
2022/05/08 03:43:04;;;;;;;;;;;19.00;63.10;;;;;;5071322;28;1324;-70
2022/05/08 03:45:30;;;;;;;;;;;19.00;63.10;;;;;;5071344;28;1291;-70
2022/05/08 03:47:56;;;;;;;;;;;19.00;63.00;;;;;;5071486;28;1402;-71
2022/05/08 03:50:21;;;;;;;;;;;19.00;63.10;;;;;;5071073;28;1913;-71
2022/05/08 03:52:47;;;;;;;;;;;19.00;63.10;;;;;;5054704;28;1285;-71
2022/05/08 03:55:13;;;;;;;;;;;19.00;63.10;;;;;;5071231;28;1334;-71
2022/05/08 03:57:38;;;;;;;;;;;19.00;63.10;;;;;;5071118;28;1123;-70
2022/05/08 04:00:04;;;;;;;;;;;19.00;63.10;;;;;;5074912;28;1094;-69
2022/05/08 04:02:30;;;;;;;;;;;19.00;63.10;;;;;;5075158;28;1248;-69
2022/05/08 04:04:55;;;;;;;;;;;19.00;63.10;;;;;;5076412;28;1658;-70
2022/05/08 04:07:21;;;;;;;;;;;19.00;63.10;;;;;;5074988;28;1276;-72
2022/05/08 04:09:46;;;;;;;;;;;19.00;63.10;;;;;;5075996;28;1182;-71
2022/05/08 04:12:12;;;;;;;;;;;19.00;63.10;;;;;;5074681;28;1890;-71
2022/05/08 04:14:38;;;;;;;;;;;19.00;63.10;;;;;;5076016;28;1396;-72
2022/05/08 04:17:03;;;;;;;;;;;19.00;63.10;;;;;;5074724;28;1324;-72
2022/05/08 04:19:29;;;;;;;;;;;19.00;63.10;;;;;;5091354;28;1317;-69
2022/05/08 04:24:16;;;;;;;;;;;19.00;63.10;;;;;;5076316;28;1067;-70
2022/05/08 04:24:40;;;;;;;;;;;19.00;63.10;;;;;;5075799;28;1126;-69
2022/05/08 04:27:06;;;;;;;;;;;19.00;63.20;;;;;;5090367;28;1228;-69
2022/05/08 04:29:31;;;;;;;;;;;19.00;63.20;;;;;;5095971;28;1228;-70
2022/05/08 04:31:57;;;;;;;;;;;19.00;63.20;;;;;;5078014;28;1965;-70
2022/05/08 04:34:22;;;;;;;;;;;19.00;63.20;;;;;;5078075;28;1357;-70
2022/05/08 04:36:48;;;;;;;;;;;19.00;63.10;;;;;;5096309;28;1364;-69
2022/05/08 04:39:13;;;;;;;;;;;19.00;63.20;;;;;;5095635;28;1091;-70
2022/05/08 04:41:38;;;;;;;;;;;19.00;63.20;;;;;;5095819;28;1409;-70
2022/05/08 04:44:04;;;;;;;;;;;19.00;63.20;;;;;;5077768;28;1163;-71
2022/05/08 04:46:30;;;;;;;;;;;19.00;63.20;;;;;;5077714;28;1291;-71
2022/05/08 04:48:55;;;;;;;;;;;19.00;64.00;;;;;;5064294;28;1107;-71
2022/05/08 04:51:20;;;;;;;;;;;19.00;63.20;;;;;;5095530;28;1969;-70
2022/05/08 04:53:46;;;;;;;;;;;19.00;63.20;;;;;;5096168;28;1300;-70
2022/05/08 04:56:12;;;;;;;;;;;19.00;63.20;;;;;;5095540;28;1345;-70
2022/05/08 04:58:37;;;;;;;;;;;19.00;63.20;;;;;;5077539;28;1190;-69
2022/05/08 05:01:02;;;;;;;;;;;19.00;63.20;;;;;;5095289;28;1354;-69
2022/05/08 05:03:28;;;;;;;;;;;19.00;63.20;;;;;;5058020;28;1393;-69
2022/05/08 05:05:53;;;;;;;;;;;19.00;63.20;;;;;;5095574;28;1332;-70
2022/05/08 05:08:20;;;;;;;;;;;19.00;63.20;;;;;;5095370;28;1288;-69
2022/05/08 05:10:46;;;;;;;;;;;19.00;63.30;;;;;;5093909;28;1898;-69
2022/05/08 05:13:12;;;;;;;;;;;19.00;63.20;;;;;;5077230;28;1318;-69
2022/05/08 05:15:37;;;;;;;;;;;19.00;63.20;;;;;;5095220;28;1273;-69
2022/05/08 05:18:03;;;;;;;;;;;19.00;63.30;;;;;;5095117;28;1347;-69
2022/05/08 05:20:29;;;;;;;;;;;19.00;63.20;;;;;;5076948;28;1263;-69
2022/05/08 05:22:55;;;;;;;;;;;19.00;63.30;;;;;;5095132;28;1360;-69
2022/05/08 05:25:20;;;;;;;;;;;19.00;63.20;;;;;;5060065;28;1412;-70
2022/05/08 05:27:46;;;;;;;;;;;19.00;63.30;;;;;;5076907;28;1194;-69
2022/05/08 05:30:11;;;;;;;;;;;19.00;63.30;;;;;;5094678;28;1902;-69
2022/05/08 05:32:39;;;;;;;;;;;19.00;63.30;;;;;;5076773;28;1332;-70
2022/05/08 05:35:05;;;;;;;;;;;19.00;63.30;;;;;;5094905;28;1083;-70
2022/05/08 05:37:31;;;;;;;;;;;19.00;63.30;;;;;;5094771;28;1291;-73
2022/05/08 05:39:56;;;;;;;;;;;19.00;63.30;;;;;;5076433;28;1127;-72
2022/05/08 05:42:21;;;;;;;;;;;19.00;63.30;;;;;;5094776;28;1106;-72
2022/05/08 05:44:47;;;;;;;;;;;19.00;63.30;;;;;;5094890;28;1032;-71
2022/05/08 05:49:56;;;;;;;;;;;19.00;63.40;;;;;;5094545;28;1898;-71
2022/05/08 05:52:22;;;;;;;;;;;19.00;63.30;;;;;;5076271;28;1285;-72
2022/05/08 05:54:47;;;;;;;;;;;19.00;63.30;;;;;;5076745;28;1071;-71
2022/05/08 05:57:13;;;;;;;;;;;19.00;63.30;;;;;;5076370;28;1222;-71
2022/05/08 05:59:38;;;;;;;;;;;19.00;63.30;;;;;;5094286;28;1040;-72
2022/05/08 06:02:03;;;;;;;;;;;19.00;63.30;;;;;;5076261;28;1139;-72
2022/05/08 06:04:29;;;;;;;;;;;19.00;63.30;;;;;;5073344;28;1657;-69
2022/05/08 06:06:54;;;;;;;;;;;19.00;63.30;;;;;;5094032;28;1317;-70
2022/05/08 06:09:20;;;;;;;;;;;19.00;63.30;;;;;;5075916;28;1330;-69
2022/05/08 06:11:46;;;;;;;;;;;19.00;63.40;;;;;;5094196;28;1898;-68
2022/05/08 06:14:11;;;;;;;;;;;19.00;63.40;;;;;;5070583;28;1877;-69
2022/05/08 06:16:36;;;;;;;;;;;19.00;63.40;;;;;;5072194;28;1279;-68
2022/05/08 06:19:02;;;;;;;;;;;19.00;63.40;;;;;;5075287;28;1151;-68
2022/05/08 06:21:27;;;;;;;;;;;19.00;63.40;;;;;;5074580;28;2020;-69
2022/05/08 06:23:54;;;;;;;;;;;19.00;63.40;;;;;;5093879;28;1113;-70
2022/05/08 06:26:19;;;;;;;;;;;19.00;63.40;;;;;;5093749;28;1330;-70
2022/05/08 06:28:45;;;;;;;;;;;19.00;63.40;;;;;;5074449;28;1768;-71
2022/05/08 06:31:11;;;;;;;;;;;19.00;63.40;;;;;;5093363;28;1963;-71
2022/05/08 06:33:36;;;;;;;;;;;19.00;63.40;;;;;;5093582;28;1161;-71
2022/05/08 06:36:02;;;;;;;;;;;19.00;63.40;;;;;;5058479;28;1272;-72
2022/05/08 06:38:27;;;;;;;;;;;19.00;63.40;;;;;;5063629;28;1150;-74
2022/05/08 06:40:52;;;;;;;;;;;19.00;63.40;;;;;;5092098;28;1179;-73
2022/05/08 06:43:18;;;;;;;;;;;19.00;63.40;;;;;;5075348;28;1342;-73
2022/05/08 06:45:43;;;;;;;;;;;19.00;63.40;;;;;;5062176;28;1232;-72
2022/05/08 06:48:09;;;;;;;;;;;19.00;63.40;;;;;;5075325;28;1165;-71
2022/05/08 06:50:35;;;;;;;;;;;19.00;63.40;;;;;;5074822;28;1898;-70
2022/05/08 06:53:01;;;;;;;;;;;19.00;63.40;;;;;;5093406;28;1489;-70
2022/05/08 06:55:26;;;;;;;;;;;19.00;63.40;;;;;;5075244;28;1263;-70
2022/05/08 06:57:52;;;;;;;;;;;19.00;63.40;;;;;;5075165;28;1110;-70
2022/05/08 07:03:07;;;;;;;;;;;19.00;63.40;;;;;;5100168;28;1229;-71
2022/05/08 07:05:36;;;;;;;;;;;19.00;63.40;;;;;;5075563;28;1381;-71
2022/05/08 07:08:01;;;;;;;;;;;19.00;63.40;;;;;;5088958;28;1638;-70
2022/05/08 07:10:27;;;;;;;;;;;19.00;63.40;;;;;;5075022;28;1914;-70
2022/05/08 07:12:52;;;;;;;;;;;19.00;63.50;;;;;;5093213;28;1204;-71
2022/05/08 07:15:17;;;;;;;;;;;19.00;63.50;;;;;;5093278;28;1518;-70
2022/05/08 07:17:44;;;;;;;;;;;19.00;63.50;;;;;;5091851;28;2092;-69
2022/05/08 07:20:09;;;;;;;;;;;19.00;63.50;;;;;;5092806;28;1628;-69
2022/05/08 07:22:35;;;;;;;;;;;19.00;63.50;;;;;;5089852;28;1483;-70
2022/05/08 07:25:01;;;;;;;;;;;19.00;63.40;;;;;;5092706;28;1546;-70
2022/05/08 07:27:26;;;;;;;;;;;19.00;63.50;;;;;;5074958;28;1596;-69
2022/05/08 07:29:52;;;;;;;;;;;19.00;63.50;;;;;;5092831;28;1375;-69
2022/05/08 07:32:18;;;;;;;;;;;19.00;63.50;;;;;;5092924;28;1973;-69
2022/05/08 07:37:27;;;;;;;;;;;19.00;63.50;;;;;;5096719;28;1863;-69
2022/05/08 07:39:52;;;;;;;;;;;19.00;63.50;;;;;;5080228;28;1763;-72
2022/05/08 07:42:18;;;;;;;;;;;19.00;63.50;;;;;;5075298;28;986;-71
2022/05/08 07:44:43;;;;;;;;;;;19.00;63.50;;;;;;5074554;28;1229;-71
2022/05/08 07:47:09;;;;;;;;;;;19.00;63.50;;;;;;5092785;28;1256;-71
2022/05/08 07:49:34;;;;;;;;;;;19.00;63.50;;;;;;5092527;28;1090;-72
2022/05/08 07:52:00;;;;;;;;;;;19.00;63.50;;;;;;5074416;28;1902;-71
2022/05/08 07:54:25;;;;;;;;;;;19.00;63.50;;;;;;5064165;28;1155;-71
2022/05/08 07:56:51;;;;;;;;;;;19.00;63.50;;;;;;5075456;28;1244;-71
2022/05/08 07:59:16;;;;;;;;;;;19.00;63.50;;;;;;5102346;28;867;-72
2022/05/08 08:01:42;;;;;;;;;;;19.00;63.50;;;;;;5092542;28;1150;-73
2022/05/08 08:04:09;;;;;;;;;;;19.00;63.50;;;;;;5092694;28;1618;-71
2022/05/08 08:06:35;;;;;;;;;;;19.00;63.50;;;;;;5093011;28;1228;-72
2022/05/08 08:09:00;;;;;;;;;;;19.00;63.50;;;;;;5070993;28;1144;-72
2022/05/08 08:11:26;;;;;;;;;;;19.00;63.50;;;;;;5070732;28;1910;-69
2022/05/08 08:13:51;;;;;;;;;;;19.00;63.60;;;;;;5092815;28;1326;-71
2022/05/08 08:16:16;;;;;;;;;;;19.00;63.60;;;;;;5074352;28;1334;-70
2022/05/08 08:18:43;;;;;;;;;;;19.00;63.50;;;;;;5092372;28;1175;-69
2022/05/08 08:21:12;;;;;;;;;;;19.00;63.50;;;;;;5074313;28;1298;-71
2022/05/08 08:23:38;;;;;;;;;;;19.00;63.50;;;;;;5074507;28;1289;-70
2022/05/08 08:26:04;;;;;;;;;;;19.00;63.50;;;;;;5074247;28;1297;-70
2022/05/08 08:28:29;;;;;;;;;;;19.00;63.60;;;;;;5074208;28;1335;-71
2022/05/08 08:30:55;;;;;;;;;;;19.00;63.50;;;;;;5091924;28;1961;-72
2022/05/08 08:33:22;;;;;;;;;;;19.00;63.50;;;;;;5092402;28;1051;-72
2022/05/08 08:35:47;;;;;;;;;;;19.00;63.50;;;;;;5092210;28;1791;-72
2022/05/08 08:38:13;;;;;;;;;;;19.00;63.50;;;;;;5074357;28;1107;-73
2022/05/08 08:40:39;;;;;;;;;;;19.00;63.50;;;;;;5091968;28;1111;-73
2022/05/08 08:43:04;;;;;;;;;;;19.00;63.60;;;;;;5074065;28;1347;-69
2022/05/08 08:48:22;;;;;;;;;;;19.00;63.50;;;;;;5080673;28;1345;-69
2022/05/08 08:50:47;;;;;;;;;;;19.00;63.60;;;;;;5077363;28;1883;-72
2022/05/08 08:53:13;;;;;;;;;;;19.00;63.50;;;;;;5095699;28;1114;-72
2022/05/08 08:55:38;;;;;;;;;;;19.00;63.50;;;;;;5095231;28;1743;-71
2022/05/08 08:58:03;;;;;;;;;;;19.00;63.50;;;;;;5076273;28;2014;-70
2022/05/08 09:00:29;;;;;;;;;;;19.00;63.50;;;;;;5076952;28;1205;-71
2022/05/08 09:02:55;;;;;;;;;;;19.00;63.50;;;;;;5095211;28;1452;-71
2022/05/08 09:05:22;;;;;;;;;;;19.00;63.60;;;;;;5095133;28;1296;-71
2022/05/08 09:07:48;;;;;;;;;;;19.00;63.50;;;;;;5095535;28;1270;-70
2022/05/08 09:10:18;;;;;;;;;;;19.00;63.50;;;;;;5076686;28;1910;-72
2022/05/08 09:12:53;;;;;;;;;;;19.00;63.50;;;;;;5088538;28;1373;-72
2022/05/08 09:15:24;;;;;;;;;;;19.00;63.50;;;;;;5095164;28;1264;-72
2022/05/08 09:17:50;;;;;;;;;;;19.00;63.60;;;;;;5095284;28;1178;-72
2022/05/08 09:20:23;;;;;;;;;;;19.00;63.60;;;;;;5076869;28;1083;-72
2022/05/08 09:22:59;;;;;;;;;;;19.00;63.60;;;;;;5094982;28;1075;-72
2022/05/08 09:25:24;;;;;;;;;;;19.00;63.60;;;;;;5076971;28;1373;-72
2022/05/08 09:27:58;;;;;;;;;;;19.00;63.60;;;;;;5081722;22;3473;-67
2022/05/08 09:30:26;;;;;;;;;;;19.00;63.50;;;;;;5034446;28;1911;-67
2022/05/08 09:32:51;;;;;;;;;;;19.00;63.60;;;;;;5033797;28;1180;-66
2022/05/08 09:35:18;;;;;;;;;;;19.00;63.60;;;;;;5034554;28;1330;-67
2022/05/08 09:37:53;;;;;;;;;;;19.00;63.60;;;;;;5020597;28;1520;-67
2022/05/08 09:40:18;;;;;;;;;;;19.00;63.50;;;;;;5027446;28;1274;-66
2022/05/08 09:42:45;;;;;;;;;;;19.00;63.60;;;;;;5030231;28;1314;-67
2022/05/08 09:45:11;;;;;;;;;;;19.00;63.60;;;;;;5014843;28;1275;-68
2022/05/08 09:47:40;;;;;;;;;;;19.00;63.60;;;;;;5030069;28;1417;-68
2022/05/08 09:50:06;;;;;;;;;;;19.00;63.60;;;;;;5029535;28;1902;-71
2022/05/08 09:52:32;;;;;;;;;;;19.00;63.60;;;;;;5013716;28;865;-70
2022/05/08 09:54:57;;;;;;;;;;;19.00;63.60;;;;;;5027205;28;1849;-70
2022/05/08 09:57:23;;;;;;;;;;;19.00;63.60;;;;;;5008618;28;1366;-68
2022/05/08 09:59:48;;;;;;;;;;;19.00;63.60;;;;;;5005014;28;1583;-68
2022/05/08 10:02:13;;;;;;;;;;;19.00;63.60;;;;;;5006338;28;1275;-69
2022/05/08 10:04:39;;;;;;;;;;;19.00;63.60;;;;;;5005996;28;1387;-68
2022/05/08 10:07:04;;;;;;;;;;;19.00;63.60;;;;;;5021146;28;1377;-67
2022/05/08 10:15:18;;;;;;;;;;;19.00;63.50;;;;;;5008403;28;2084;-67
2022/05/08 10:17:43;;;;;;;;;;;19.00;63.60;;;;;;5010799;28;1631;-68
2022/05/08 10:20:09;;;;;;;;;;;19.00;63.60;;;;;;5012177;28;1338;-68
2022/05/08 10:22:50;;;;;;;;;;;19.00;63.60;;;;;;5014058;28;1400;-68
2022/05/08 10:25:16;;;;;;;;;;;19.00;63.60;;;;;;5013876;28;1279;-68
2022/05/08 10:27:43;;;;;;;;;;;19.00;63.60;;;;;;5023914;28;1367;-68
2022/05/08 10:30:08;;;;;;;;;;;19.00;63.60;;;;;;5032147;28;1894;-67
2022/05/08 10:32:34;;;;;;;;;;;19.00;63.60;;;;;;5033432;28;1228;-68
2022/05/08 10:35:03;;;;;;;;;;;19.00;63.60;;;;;;5033634;28;1294;-69
2022/05/08 10:37:29;;;;;;;;;;;19.00;63.60;;;;;;5033339;28;1522;-69
2022/05/08 10:39:54;;;;;;;;;;;19.00;63.60;;;;;;5015313;28;2000;-69
2022/05/08 10:42:23;;;;;;;;;;;19.00;63.60;;;;;;5031948;28;1807;-67
2022/05/08 10:44:48;;;;;;;;;;;19.00;63.60;;;;;;5033170;28;1110;-67
2022/05/08 10:47:32;;;;;;;;;;;19.00;63.60;;;;;;5033284;28;1250;-67
2022/05/08 10:50:01;;;;;;;;;;;19.00;63.60;;;;;;5045423;28;1742;-67
2022/05/08 10:52:27;;;;;;;;;;;19.00;63.60;;;;;;5033067;28;1964;-68
2022/05/08 10:54:56;;;;;;;;;;;19.00;63.60;;;;;;5033140;28;1211;-67
2022/05/08 10:57:30;;;;;;;;;;;19.00;63.60;;;;;;5033332;28;1308;-67
2022/05/08 10:59:56;;;;;;;;;;;19.00;63.60;;;;;;5031838;28;1253;-67
2022/05/08 11:02:38;;;;;;;;;;;19.00;63.70;;;;;;5032033;28;1335;-67
2022/05/08 11:05:03;;;;;;;;;;;19.00;63.60;;;;;;5029944;28;1331;-67
2022/05/08 11:07:29;;;;;;;;;;;19.00;63.60;;;;;;5030870;28;1975;-67
2022/05/08 11:09:54;;;;;;;;;;;19.00;63.60;;;;;;5032955;28;1109;-67
2022/05/08 11:12:20;;;;;;;;;;;19.00;63.60;;;;;;5028908;28;1902;-67
2022/05/08 11:14:45;;;;;;;;;;;19.00;63.60;;;;;;5026114;28;1220;-67
2022/05/08 11:17:17;;;;;;;;;;;19.00;63.60;;;;;;5023808;28;1357;-67
2022/05/08 11:19:51;;;;;;;;;;;19.00;63.60;;;;;;5038822;28;1255;-67
2022/05/08 11:22:17;;;;;;;;;;;19.00;63.60;;;;;;5023048;28;1336;-67
2022/05/08 11:24:45;;;;;;;;;;;19.00;63.60;;;;;;5025007;28;1334;-67
2022/05/08 11:27:12;;;;;;;;;;;19.00;63.60;;;;;;5023905;28;1365;-67
2022/05/08 11:29:37;;;;;;;;;;;19.00;63.60;;;;;;5025593;28;2115;-68
2022/05/08 11:38:00;;;;;;;;;;;19.00;63.60;;;;;;5043369;28;1235;-67
2022/05/08 11:40:26;;;;;;;;;;;19.00;63.70;;;;;;5022190;28;2242;-67
2022/05/08 11:42:52;;;;;;;;;;;19.00;63.60;;;;;;5035650;28;1249;-67
2022/05/08 11:45:17;;;;;;;;;;;19.00;63.60;;;;;;5036698;28;1309;-68
2022/05/08 11:47:53;;;;;;;;;;;19.00;63.60;;;;;;5031291;28;1845;-66
2022/05/08 11:50:19;;;;;;;;;;;19.00;63.70;;;;;;5031626;28;1903;-67
2022/05/08 11:52:44;;;;;;;;;;;19.00;63.70;;;;;;5032188;28;1333;-66
2022/05/08 11:55:10;;;;;;;;;;;19.00;63.60;;;;;;5033387;28;1266;-66
2022/05/08 11:57:45;;;;;;;;;;;19.00;63.70;;;;;;5031198;28;1306;-67
2022/05/08 12:00:12;;;;;;;;;;;19.00;63.60;;;;;;5025317;28;1291;-66
2022/05/08 12:02:47;;;;;;;;;;;19.00;63.70;;;;;;5023871;28;1338;-66
2022/05/08 12:05:16;;;;;;;;;;;19.00;63.60;;;;;;5023192;28;1335;-66
2022/05/08 12:07:41;;;;;;;;;;;19.00;63.70;;;;;;5022792;28;1398;-66
2022/05/08 12:10:07;;;;;;;;;;;19.00;63.70;;;;;;5026964;28;1418;-67
2022/05/08 12:12:33;;;;;;;;;;;19.00;63.70;;;;;;5024065;28;2376;-67
2022/05/08 12:14:59;;;;;;;;;;;19.00;63.10;;;;;;5023778;28;1223;-67
2022/05/08 12:17:25;;;;;;;;;;;19.10;62.20;;;;;;5023031;28;1393;-66
2022/05/08 12:19:54;;;;;;;;;;;19.10;60.90;;;;;;5033516;28;2015;-67
2022/05/08 12:22:26;;;;;;;;;;;19.10;60.70;;;;;;5043823;28;1254;-68
2022/05/08 12:24:52;;;;;;;;;;;19.20;60.90;;;;;;5035384;28;1245;-69
2022/05/08 12:27:17;;;;;;;;;;;19.20;60.70;;;;;;5034614;28;1304;-68
2022/05/08 12:29:46;;;;;;;;;;;19.20;59.40;;;;;;5051782;28;1354;-69
2022/05/08 12:32:14;;;;;;;;;;;19.20;58.80;;;;;;5050543;28;1967;-69
2022/05/08 12:34:41;;;;;;;;;;;19.20;57.70;;;;;;5035897;28;1250;-68
2022/05/08 12:37:07;;;;;;;;;;;19.30;57.40;;;;;;5035826;28;1296;-69
2022/05/08 12:39:33;;;;;;;;;;;19.30;56.90;;;;;;5034272;28;1251;-67
2022/05/08 12:41:58;;;;;;;;;;;19.30;56.40;;;;;;5035788;28;1259;-68
2022/05/08 12:44:23;;;;;;;;;;;19.30;55.90;;;;;;5035665;28;1274;-67
2022/05/08 12:46:49;;;;;;;;;;;19.30;55.20;;;;;;5046085;28;1365;-67
2022/05/08 12:49:15;;;;;;;;;;;19.30;54.40;;;;;;5031996;28;1159;-68
2022/05/08 12:51:41;;;;;;;;;;;19.30;54.20;;;;;;5034964;28;1891;-68
2022/05/08 12:54:07;;;;;;;;;;;19.30;53.60;;;;;;5035287;28;1255;-68
2022/05/08 12:56:33;;;;;;;;;;;19.30;52.40;;;;;;5034096;28;1487;-67
2022/05/08 13:01:42;;;;;;;;;;;19.40;51.40;;;;;;5035475;28;1236;-67
2022/05/08 13:04:08;;;;;;;;;;;19.30;50.90;;;;;;5035152;28;1623;-67
2022/05/08 13:06:34;;;;;;;;;;;19.30;51.70;;;;;;5043163;28;1331;-68
2022/05/08 13:08:59;;;;;;;;;;;19.30;50.90;;;;;;5043971;28;1154;-67
2022/05/08 13:11:25;;;;;;;;;;;19.40;49.80;;;;;;5034873;28;1961;-67
2022/05/08 13:13:50;;;;;;;;;;;19.30;47.90;;;;;;5035069;28;1283;-68
2022/05/08 13:16:16;;;;;;;;;;;19.40;48.40;;;;;;5033718;28;1352;-67
2022/05/08 13:18:42;;;;;;;;;;;19.40;47.90;;;;;;5035007;28;1247;-68
2022/05/08 13:21:07;;;;;;;;;;;19.40;48.30;;;;;;5035175;28;1303;-68
2022/05/08 13:23:33;;;;;;;;;;;19.40;47.80;;;;;;5027174;28;1358;-68
2022/05/08 13:25:58;;;;;;;;;;;19.40;47.40;;;;;;5029921;28;1286;-67
2022/05/08 13:28:23;;;;;;;;;;;19.30;46.80;;;;;;5034675;28;1285;-67
2022/05/08 13:30:49;;;;;;;;;;;19.40;46.70;;;;;;5034252;28;1980;-67
2022/05/08 13:33:14;;;;;;;;;;;19.30;46.00;;;;;;5033911;28;1240;-67
2022/05/08 13:35:40;;;;;;;;;;;19.40;45.60;;;;;;5034821;28;1378;-67
2022/05/08 13:38:05;;;;;;;;;;;19.40;45.10;;;;;;5034609;28;1271;-68
2022/05/08 13:40:31;;;;;;;;;;;19.40;44.80;;;;;;5034484;28;1247;-67
2022/05/08 13:42:57;;;;;;;;;;;19.40;44.80;;;;;;5034598;28;1254;-68
2022/05/08 13:45:22;;;;;;;;;;;19.40;43.70;;;;;;5034360;28;1449;-68
2022/05/08 13:47:48;;;;;;;;;;;19.40;43.20;;;;;;5034536;28;1370;-68
2022/05/08 13:50:14;;;;;;;;;;;19.40;43.60;;;;;;5049275;28;1898;-68
2022/05/08 13:52:39;;;;;;;;;;;19.40;44.10;;;;;;5034486;28;1261;-68
2022/05/08 13:55:06;;;;;;;;;;;19.40;43.80;;;;;;5034281;28;1388;-68
2022/05/08 13:57:32;;;;;;;;;;;19.40;43.60;;;;;;5034343;28;1262;-67
2022/05/08 13:59:58;;;;;;;;;;;19.40;43.60;;;;;;5049034;28;1291;-68
2022/05/08 14:02:23;;;;;;;;;;;19.40;43.20;;;;;;5034223;28;1293;-68
2022/05/08 14:04:49;;;;;;;;;;;19.40;42.30;;;;;;5034316;28;1711;-68
2022/05/08 14:07:14;;;;;;;;;;;19.40;41.50;;;;;;5034172;28;1425;-68
2022/05/08 14:09:40;;;;;;;;;;;19.40;42.40;;;;;;5032480;28;1170;-68
2022/05/08 14:12:06;;;;;;;;;;;19.40;42.20;;;;;;5033108;28;1965;-68
2022/05/08 14:14:32;;;;;;;;;;;19.40;41.40;;;;;;5033703;28;1152;-67
2022/05/08 14:16:59;;;;;;;;;;;19.40;41.70;;;;;;5034176;28;1269;-67
2022/05/08 14:19:25;;;;;;;;;;;19.40;42.20;;;;;;5033488;28;1215;-68
2022/05/08 14:21:50;;;;;;;;;;;19.40;43.00;;;;;;5032911;28;1281;-68
2022/05/08 14:24:15;;;;;;;;;;;19.40;42.20;;;;;;5032588;28;1337;-68
2022/05/08 14:26:41;;;;;;;;;;;19.40;42.20;;;;;;5033540;28;1285;-68
2022/05/08 14:29:06;;;;;;;;;;;19.40;41.40;;;;;;5033424;28;1455;-68
2022/05/08 14:37:00;;;;;;;;;;;19.40;41.00;;;;;;5033452;28;1304;-68
2022/05/08 14:39:27;;;;;;;;;;;19.40;39.80;;;;;;5033042;28;1356;-68
2022/05/08 14:41:52;;;;;;;;;;;19.40;39.40;;;;;;5027255;28;1259;-69
2022/05/08 14:44:18;;;;;;;;;;;19.40;39.60;;;;;;5024924;28;1286;-68
2022/05/08 14:46:43;;;;;;;;;;;19.40;41.80;;;;;;5039807;28;1294;-68
2022/05/08 14:49:09;;;;;;;;;;;19.40;41.80;;;;;;5027751;28;1235;-68
2022/05/08 14:51:34;;;;;;;;;;;19.40;41.70;;;;;;5027173;28;2228;-68
2022/05/08 14:54:00;;;;;;;;;;;19.40;41.10;;;;;;5036359;28;1767;-68
2022/05/08 14:56:25;;;;;;;;;;;19.40;40.90;;;;;;5034333;28;1291;-68
2022/05/08 14:58:51;;;;;;;;;;;19.40;41.80;;;;;;5037249;28;1167;-68